Time;durP1;ratioP1;P1;durP2;ratioP2;P2;SDS_P1;SDS_P2;PMS_P1;PMS_P2;Temp;Humidity;BMP_temperature;BMP_pressure;BME280_temperature;BME280_humidity;BME280_pressure;Samples;Min_cycle;Max_cycle;Signal;HPM_P1;HPM_P2
2023/04/27 00:00:23;;;;;;;8.88;3.85;;;;;;;;;;5073553;27;20050;-80
2023/04/27 00:02:49;;;;;;;7.90;4.25;;;;;;;;;;5096593;27;20048;-80
2023/04/27 00:05:15;;;;;;;4.32;3.92;;;;;;;;;;5100609;27;20051;-80
2023/04/27 00:07:41;;;;;;;7.22;4.57;;;;;;;;;;5093936;27;20048;-80
2023/04/27 00:10:08;;;;;;;9.13;4.63;;;;;;;;;;5090890;27;20059;-80
2023/04/27 00:12:34;;;;;;;5.80;4.53;;;;;;;;;;5072525;27;20981;-80
2023/04/27 00:15:00;;;;;;;11.13;4.10;;;;;;;;;;5095624;27;20170;-80
2023/04/27 00:17:26;;;;;;;8.93;5.03;;;;;;;;;;5097429;27;20039;-79
2023/04/27 00:19:53;;;;;;;8.85;4.53;;;;;;;;;;5073299;27;20039;-79
2023/04/27 00:22:19;;;;;;;7.28;4.75;;;;;;;;;;5064733;27;21903;-80
2023/04/27 00:24:45;;;;;;;6.57;4.40;;;;;;;;;;5093604;27;20175;-80
2023/04/27 00:27:12;;;;;;;6.80;4.68;;;;;;;;;;5089430;27;20484;-79
2023/04/27 00:29:41;;;;;;;12.88;5.03;;;;;;;;;;5096121;27;20463;-79
2023/04/27 00:32:08;;;;;;;10.38;4.90;;;;;;;;;;5094748;27;20043;-79
2023/04/27 00:34:35;;;;;;;6.85;4.45;;;;;;;;;;5091932;27;20037;-79
2023/04/27 00:37:01;;;;;;;5.93;4.90;;;;;;;;;;5096905;27;21908;-80
2023/04/27 00:39:27;;;;;;;8.27;5.07;;;;;;;;;;5069733;27;20108;-80
2023/04/27 00:41:53;;;;;;;9.40;5.00;;;;;;;;;;5093800;27;20039;-80
2023/04/27 00:44:23;;;;;;;7.20;4.68;;;;;;;;;;5091150;27;20036;-80
2023/04/27 00:46:49;;;;;;;7.28;4.93;;;;;;;;;;5077805;27;20546;-80
2023/04/27 00:49:16;;;;;;;9.02;5.10;;;;;;;;;;5094409;27;20146;-80
2023/04/27 00:51:42;;;;;;;11.20;4.85;;;;;;;;;;5095938;27;20044;-79
2023/04/27 00:54:08;;;;;;;6.78;4.95;;;;;;;;;;5091857;27;20130;-80
2023/04/27 00:56:36;;;;;;;19.58;7.13;;;;;;;;;;5092205;27;20047;-80
2023/04/27 00:59:02;;;;;;;8.10;4.72;;;;;;;;;;5070009;27;20142;-80
2023/04/27 01:01:29;;;;;;;8.10;5.10;;;;;;;;;;5095872;27;20121;-80
2023/04/27 01:03:56;;;;;;;6.75;4.68;;;;;;;;;;5093909;27;20128;-80
2023/04/27 01:06:22;;;;;;;11.30;5.43;;;;;;;;;;5070072;28;21155;-80
2023/04/27 01:08:48;;;;;;;12.35;4.47;;;;;;;;;;5091185;27;20070;-79
2023/04/27 01:11:14;;;;;;;6.82;5.03;;;;;;;;;;5089446;27;20859;-79
2023/04/27 01:13:40;;;;;;;9.02;4.55;;;;;;;;;;5093167;27;20529;-80
2023/04/27 01:16:07;;;;;;;8.52;4.63;;;;;;;;;;5086111;27;20165;-79
2023/04/27 01:18:33;;;;;;;7.97;4.57;;;;;;;;;;5067974;27;20047;-80
2023/04/27 01:21:00;;;;;;;7.78;4.57;;;;;;;;;;5091611;27;20098;-80
2023/04/27 01:23:26;;;;;;;7.03;4.88;;;;;;;;;;5088879;27;20043;-79
2023/04/27 01:25:52;;;;;;;8.27;4.40;;;;;;;;;;5084518;27;20499;-80
2023/04/27 01:28:18;;;;;;;9.20;4.65;;;;;;;;;;5092203;27;20043;-80
2023/04/27 01:30:44;;;;;;;6.45;4.32;;;;;;;;;;5091456;27;20032;-80
2023/04/27 01:33:10;;;;;;;5.57;4.28;;;;;;;;;;5092849;27;20067;-80
2023/04/27 01:35:36;;;;;;;9.32;5.35;;;;;;;;;;5094870;27;20050;-80
2023/04/27 01:38:02;;;;;;;9.40;4.78;;;;;;;;;;5097121;27;20040;-80
2023/04/27 01:40:28;;;;;;;6.55;4.35;;;;;;;;;;5075887;27;20158;-80
2023/04/27 01:42:55;;;;;;;8.60;4.57;;;;;;;;;;5072440;27;20039;-80
2023/04/27 01:45:21;;;;;;;8.65;4.88;;;;;;;;;;5094198;27;20043;-80
2023/04/27 01:47:47;;;;;;;7.03;5.20;;;;;;;;;;5099366;27;20067;-80
2023/04/27 01:50:13;;;;;;;9.88;4.82;;;;;;;;;;5098957;27;20047;-80
2023/04/27 01:52:39;;;;;;;8.93;4.88;;;;;;;;;;5102935;27;20039;-80
2023/04/27 01:55:06;;;;;;;4.97;4.05;;;;;;;;;;5094508;27;20196;-80
2023/04/27 01:57:32;;;;;;;7.00;4.22;;;;;;;;;;5098556;27;20192;-80
2023/04/27 01:59:58;;;;;;;7.85;4.55;;;;;;;;;;5098675;27;20035;-80
2023/04/27 02:02:24;;;;;;;8.52;4.90;;;;;;;;;;5091487;27;20043;-80
2023/04/27 02:04:50;;;;;;;5.13;4.32;;;;;;;;;;5092696;27;20407;-80
2023/04/27 02:07:16;;;;;;;9.50;4.60;;;;;;;;;;5071860;28;20054;-80
2023/04/27 02:09:43;;;;;;;11.13;4.70;;;;;;;;;;5084382;28;21538;-80
2023/04/27 02:12:09;;;;;;;8.48;5.03;;;;;;;;;;5092224;27;20048;-80
2023/04/27 02:14:35;;;;;;;9.40;4.10;;;;;;;;;;5092853;28;20043;-79
2023/04/27 02:17:01;;;;;;;10.52;4.28;;;;;;;;;;5093234;27;20059;-80
2023/04/27 02:19:27;;;;;;;8.65;4.70;;;;;;;;;;5092080;27;20047;-80
2023/04/27 02:21:53;;;;;;;5.63;4.47;;;;;;;;;;5093092;27;20044;-80
2023/04/27 02:24:20;;;;;;;8.18;4.50;;;;;;;;;;5092443;27;20046;-80
2023/04/27 02:26:46;;;;;;;8.27;4.57;;;;;;;;;;5084003;27;20059;-79
2023/04/27 02:29:12;;;;;;;6.00;4.32;;;;;;;;;;5082737;27;21964;-79
2023/04/27 02:31:38;;;;;;;7.60;4.15;;;;;;;;;;5085894;27;20040;-79
2023/04/27 02:34:04;;;;;;;4.95;3.85;;;;;;;;;;5096681;27;21607;-79
2023/04/27 02:36:30;;;;;;;7.03;4.00;;;;;;;;;;5064639;27;20067;-79
2023/04/27 02:38:56;;;;;;;7.30;4.50;;;;;;;;;;5077928;27;20047;-79
2023/04/27 02:41:23;;;;;;;8.23;4.07;;;;;;;;;;5079679;28;20050;-79
2023/04/27 02:43:50;;;;;;;7.57;4.10;;;;;;;;;;5084136;27;20054;-79
2023/04/27 02:46:16;;;;;;;6.82;4.00;;;;;;;;;;5066060;28;20166;-80
2023/04/27 02:48:42;;;;;;;7.90;4.22;;;;;;;;;;5059941;28;20169;-80
2023/04/27 02:51:08;;;;;;;5.97;4.32;;;;;;;;;;5079277;27;20051;-80
2023/04/27 02:53:35;;;;;;;9.20;3.80;;;;;;;;;;5077627;27;20127;-80
2023/04/27 02:56:01;;;;;;;7.18;4.20;;;;;;;;;;5083583;27;22015;-79
2023/04/27 02:58:27;;;;;;;5.18;4.22;;;;;;;;;;5084797;27;20036;-80
2023/04/27 03:00:54;;;;;;;6.28;4.45;;;;;;;;;;5078345;27;20219;-80
2023/04/27 03:03:21;;;;;;;5.38;4.50;;;;;;;;;;5081577;28;20043;-80
2023/04/27 03:05:47;;;;;;;6.43;4.55;;;;;;;;;;5096470;27;20047;-80
2023/04/27 03:08:13;;;;;;;7.57;4.25;;;;;;;;;;5081297;27;20050;-80
2023/04/27 03:10:39;;;;;;;6.88;4.38;;;;;;;;;;5079281;27;20052;-80
2023/04/27 03:13:05;;;;;;;6.55;4.00;;;;;;;;;;5082381;27;20504;-79
2023/04/27 03:15:31;;;;;;;9.85;4.80;;;;;;;;;;5082475;27;21026;-79
2023/04/27 03:17:57;;;;;;;7.28;4.90;;;;;;;;;;5077841;27;20124;-79
2023/04/27 03:20:24;;;;;;;8.18;4.88;;;;;;;;;;5079357;27;20080;-79
2023/04/27 03:22:50;;;;;;;7.25;4.97;;;;;;;;;;5079644;28;20078;-79
2023/04/27 03:25:16;;;;;;;6.18;5.13;;;;;;;;;;5083843;27;20101;-79
2023/04/27 03:27:42;;;;;;;7.28;4.68;;;;;;;;;;5056497;28;21212;-79
2023/04/27 03:30:09;;;;;;;7.68;5.05;;;;;;;;;;5087522;27;20375;-79
2023/04/27 03:32:35;;;;;;;9.68;5.20;;;;;;;;;;5090445;27;20043;-79
2023/04/27 03:35:02;;;;;;;6.68;5.63;;;;;;;;;;5092375;27;20139;-79
2023/04/27 03:37:28;;;;;;;9.60;6.13;;;;;;;;;;5091465;27;20047;-79
2023/04/27 03:39:54;;;;;;;8.75;5.28;;;;;;;;;;5098229;27;20119;-79
2023/04/27 03:42:21;;;;;;;7.53;5.13;;;;;;;;;;5094481;27;20051;-79
2023/04/27 03:44:47;;;;;;;9.38;5.57;;;;;;;;;;5096665;27;20074;-79
2023/04/27 03:47:13;;;;;;;8.23;5.65;;;;;;;;;;5079821;27;20121;-79
2023/04/27 03:49:39;;;;;;;16.70;5.65;;;;;;;;;;5095964;27;20031;-79
2023/04/27 03:52:05;;;;;;;12.70;5.82;;;;;;;;;;5095892;27;20043;-79
2023/04/27 03:54:31;;;;;;;8.50;5.20;;;;;;;;;;5098354;27;20043;-79
2023/04/27 03:56:57;;;;;;;8.20;5.97;;;;;;;;;;5098355;27;20483;-79
2023/04/27 03:59:23;;;;;;;9.75;5.82;;;;;;;;;;5090531;27;20032;-78
2023/04/27 04:01:50;;;;;;;7.82;5.35;;;;;;;;;;5088531;27;20043;-79
2023/04/27 04:04:16;;;;;;;8.43;5.72;;;;;;;;;;5093975;27;20479;-78
2023/04/27 04:06:42;;;;;;;9.88;5.40;;;;;;;;;;5076216;27;20096;-79
2023/04/27 04:09:09;;;;;;;11.80;5.30;;;;;;;;;;5090157;27;20056;-79
2023/04/27 04:11:35;;;;;;;9.30;5.55;;;;;;;;;;5092365;27;20750;-79
2023/04/27 04:14:01;;;;;;;7.35;5.88;;;;;;;;;;5096682;27;20044;-80
2023/04/27 04:16:27;;;;;;;8.93;6.32;;;;;;;;;;5098273;27;20048;-80
2023/04/27 04:18:53;;;;;;;10.45;6.20;;;;;;;;;;5105693;27;20044;-79
2023/04/27 04:21:19;;;;;;;8.43;5.57;;;;;;;;;;5095208;27;20094;-79
2023/04/27 04:23:45;;;;;;;10.80;5.82;;;;;;;;;;5089811;27;20058;-79
2023/04/27 04:26:12;;;;;;;8.85;5.90;;;;;;;;;;5094579;27;20076;-80
2023/04/27 04:28:38;;;;;;;10.40;5.63;;;;;;;;;;5065811;27;20074;-80
2023/04/27 04:31:05;;;;;;;8.50;5.10;;;;;;;;;;5099585;27;20044;-80
2023/04/27 04:33:31;;;;;;;7.38;5.18;;;;;;;;;;5090474;27;20048;-80
2023/04/27 04:35:57;;;;;;;8.13;5.70;;;;;;;;;;5065787;27;20122;-80
2023/04/27 04:38:23;;;;;;;8.90;5.65;;;;;;;;;;5090769;27;20042;-80
2023/04/27 04:40:51;;;;;;;8.20;5.68;;;;;;;;;;5091529;27;20039;-80
2023/04/27 04:43:17;;;;;;;10.43;6.00;;;;;;;;;;5090884;27;20070;-80
2023/04/27 04:45:44;;;;;;;18.55;6.65;;;;;;;;;;5089068;27;20777;-80
2023/04/27 04:48:10;;;;;;;20.30;6.82;;;;;;;;;;5084427;27;20035;-80
2023/04/27 04:50:38;;;;;;;11.95;5.93;;;;;;;;;;5086474;27;20036;-80
2023/04/27 04:53:05;;;;;;;7.65;5.57;;;;;;;;;;5086213;27;20046;-79
2023/04/27 04:55:31;;;;;;;8.50;5.55;;;;;;;;;;5069952;27;20078;-79
2023/04/27 04:57:57;;;;;;;8.75;5.80;;;;;;;;;;5080305;27;20679;-79
2023/04/27 05:00:23;;;;;;;8.07;5.35;;;;;;;;;;5083276;27;20105;-79
2023/04/27 05:02:49;;;;;;;6.50;5.53;;;;;;;;;;5088142;27;20047;-79
2023/04/27 05:05:15;;;;;;;10.98;6.05;;;;;;;;;;5073678;27;20051;-79
2023/04/27 05:07:42;;;;;;;12.95;6.68;;;;;;;;;;5074713;27;20130;-79
2023/04/27 05:10:08;;;;;;;8.73;6.47;;;;;;;;;;5071199;27;20055;-78
2023/04/27 05:12:34;;;;;;;9.07;6.78;;;;;;;;;;5078065;27;20044;-78
2023/04/27 05:15:00;;;;;;;14.23;6.88;;;;;;;;;;5084942;27;20047;-80
2023/04/27 05:17:26;;;;;;;15.63;6.20;;;;;;;;;;5061612;27;20043;-79
2023/04/27 05:19:53;;;;;;;9.95;6.72;;;;;;;;;;5081073;27;20040;-80
2023/04/27 05:22:19;;;;;;;12.23;7.18;;;;;;;;;;5079203;27;20043;-79
2023/04/27 05:24:45;;;;;;;12.65;7.72;;;;;;;;;;5076860;27;20088;-79
2023/04/27 05:27:13;;;;;;;13.45;7.68;;;;;;;;;;5074407;27;20036;-79
2023/04/27 05:29:39;;;;;;;12.40;7.78;;;;;;;;;;5071111;27;20053;-78
2023/04/27 05:32:06;;;;;;;15.70;7.55;;;;;;;;;;5077326;27;20039;-78
2023/04/27 05:34:32;;;;;;;13.70;8.25;;;;;;;;;;5083521;27;20035;-79
2023/04/27 05:36:58;;;;;;;9.25;7.05;;;;;;;;;;5090441;27;20075;-79
2023/04/27 05:39:25;;;;;;;12.38;7.20;;;;;;;;;;5060391;28;21338;-79
2023/04/27 05:41:52;;;;;;;11.85;8.43;;;;;;;;;;5085500;27;20054;-79
2023/04/27 05:44:19;;;;;;;12.15;7.55;;;;;;;;;;5082494;27;20127;-80
2023/04/27 05:46:45;;;;;;;11.30;8.77;;;;;;;;;;5089824;27;20047;-80
2023/04/27 05:49:11;;;;;;;11.25;8.30;;;;;;;;;;5084022;27;20084;-79
2023/04/27 05:51:37;;;;;;;13.90;8.07;;;;;;;;;;5083796;27;20112;-79
2023/04/27 05:54:04;;;;;;;16.70;8.10;;;;;;;;;;5068748;27;20035;-78
2023/04/27 05:56:30;;;;;;;13.82;8.10;;;;;;;;;;5087184;27;20054;-79
2023/04/27 05:58:56;;;;;;;16.13;8.48;;;;;;;;;;5070151;27;20754;-79
2023/04/27 06:01:22;;;;;;;10.98;7.72;;;;;;;;;;5083561;27;20051;-79
2023/04/27 06:03:48;;;;;;;9.00;6.57;;;;;;;;;;5083930;27;20786;-79
2023/04/27 06:06:14;;;;;;;9.55;6.80;;;;;;;;;;5077560;27;20052;-79
2023/04/27 06:08:41;;;;;;;13.77;7.80;;;;;;;;;;5082661;27;20154;-80
2023/04/27 06:11:07;;;;;;;15.88;6.60;;;;;;;;;;5076727;27;20130;-79
2023/04/27 06:13:33;;;;;;;13.45;6.65;;;;;;;;;;5086311;27;20055;-80
2023/04/27 06:16:00;;;;;;;8.13;6.75;;;;;;;;;;5084792;27;20077;-79
2023/04/27 06:18:26;;;;;;;11.77;7.57;;;;;;;;;;5086482;28;20150;-80
2023/04/27 06:20:52;;;;;;;9.77;7.20;;;;;;;;;;5084472;28;20158;-79
2023/04/27 06:23:18;;;;;;;13.07;6.32;;;;;;;;;;5085855;27;20035;-79
2023/04/27 06:25:44;;;;;;;10.20;6.28;;;;;;;;;;5084470;27;20062;-79
2023/04/27 06:28:10;;;;;;;10.98;6.22;;;;;;;;;;5084106;27;20039;-79
2023/04/27 06:30:36;;;;;;;9.00;6.43;;;;;;;;;;5077220;27;21946;-79
2023/04/27 06:33:02;;;;;;;9.75;6.05;;;;;;;;;;5069405;28;20039;-78
2023/04/27 06:35:29;;;;;;;12.90;6.13;;;;;;;;;;5072476;28;20051;-79
2023/04/27 06:37:57;;;;;;;15.80;6.38;;;;;;;;;;5082677;28;20046;-79
2023/04/27 06:40:24;;;;;;;10.27;6.03;;;;;;;;;;5084524;27;20051;-80
2023/04/27 06:42:50;;;;;;;8.60;6.43;;;;;;;;;;5083075;27;20039;-80
2023/04/27 06:45:16;;;;;;;7.97;5.97;;;;;;;;;;5068806;28;20092;-80
2023/04/27 06:47:42;;;;;;;9.43;6.10;;;;;;;;;;5083645;27;20483;-78
2023/04/27 06:50:09;;;;;;;9.27;6.55;;;;;;;;;;5063379;28;20143;-80
2023/04/27 06:52:35;;;;;;;11.40;6.78;;;;;;;;;;5085781;28;20096;-80
2023/04/27 06:55:01;;;;;;;11.75;5.93;;;;;;;;;;5088237;27;20997;-80
2023/04/27 06:57:27;;;;;;;9.98;6.55;;;;;;;;;;5089241;28;20042;-70
2023/04/27 06:59:53;;;;;;;10.35;6.25;;;;;;;;;;5085440;27;20078;-70
2023/04/27 07:02:19;;;;;;;9.15;6.30;;;;;;;;;;5086358;28;20073;-70
2023/04/27 07:04:46;;;;;;;10.95;6.88;;;;;;;;;;5087551;27;20479;-70
2023/04/27 07:07:12;;;;;;;15.80;6.38;;;;;;;;;;5086935;27;20180;-72
2023/04/27 07:09:38;;;;;;;12.55;6.20;;;;;;;;;;5087968;27;20060;-71
2023/04/27 07:12:05;;;;;;;8.18;5.80;;;;;;;;;;5087904;27;20508;-71
2023/04/27 07:14:32;;;;;;;10.70;6.80;;;;;;;;;;5075928;27;20044;-71
2023/04/27 07:16:58;;;;;;;6.95;5.45;;;;;;;;;;5089557;27;20077;-71
2023/04/27 07:19:24;;;;;;;9.50;6.05;;;;;;;;;;5095449;27;20161;-71
2023/04/27 07:21:51;;;;;;;8.15;5.18;;;;;;;;;;5085636;27;20405;-72
2023/04/27 07:24:17;;;;;;;6.43;4.95;;;;;;;;;;5094332;27;20047;-71
2023/04/27 07:26:43;;;;;;;6.50;4.50;;;;;;;;;;5089987;27;20523;-72
2023/04/27 07:29:11;;;;;;;6.65;5.05;;;;;;;;;;5091746;27;20059;-72
2023/04/27 07:31:37;;;;;;;8.40;4.68;;;;;;;;;;5092802;27;20043;-72
2023/04/27 07:34:03;;;;;;;8.32;4.32;;;;;;;;;;5089043;27;21137;-72
2023/04/27 07:36:30;;;;;;;5.85;4.00;;;;;;;;;;5089588;27;20047;-72
2023/04/27 07:38:57;;;;;;;6.53;3.88;;;;;;;;;;5092238;27;20444;-72
2023/04/27 07:41:23;;;;;;;5.70;3.47;;;;;;;;;;5092708;27;20071;-72
2023/04/27 07:43:51;;;;;;;10.30;3.70;;;;;;;;;;5068016;27;20492;-72
2023/04/27 07:46:17;;;;;;;6.22;3.78;;;;;;;;;;5090652;27;20058;-74
2023/04/27 07:48:43;;;;;;;12.00;4.97;;;;;;;;;;5091860;27;20400;-74
2023/04/27 07:51:10;;;;;;;4.53;3.55;;;;;;;;;;5087268;27;20043;-72
2023/04/27 07:53:36;;;;;;;5.18;3.40;;;;;;;;;;5091153;27;20054;-72
2023/04/27 07:56:05;;;;;;;5.80;3.40;;;;;;;;;;5092285;27;20092;-72
2023/04/27 07:58:31;;;;;;;5.43;3.30;;;;;;;;;;5092759;27;20043;-72
2023/04/27 08:00:57;;;;;;;6.40;3.65;;;;;;;;;;5090857;27;22028;-72
2023/04/27 08:03:23;;;;;;;5.10;2.92;;;;;;;;;;5087961;27;20049;-72
2023/04/27 08:05:49;;;;;;;3.83;2.63;;;;;;;;;;5061091;27;20058;-72
2023/04/27 08:08:16;;;;;;;9.13;3.03;;;;;;;;;;5091478;27;20043;-73
2023/04/27 08:10:42;;;;;;;7.18;3.17;;;;;;;;;;5088447;27;20043;-73
2023/04/27 08:13:08;;;;;;;4.57;2.55;;;;;;;;;;5084589;27;20059;-73
2023/04/27 08:15:35;;;;;;;5.75;3.15;;;;;;;;;;5084677;27;22440;-73
2023/04/27 08:18:01;;;;;;;3.97;2.95;;;;;;;;;;5085993;27;20474;-72
2023/04/27 08:20:27;;;;;;;3.42;2.78;;;;;;;;;;5088444;27;20163;-73
2023/04/27 08:22:53;;;;;;;4.47;2.92;;;;;;;;;;5066515;27;20427;-72
2023/04/27 08:25:19;;;;;;;5.75;2.90;;;;;;;;;;5088600;27;20093;-73
2023/04/27 08:27:45;;;;;;;4.97;2.90;;;;;;;;;;5090751;27;20048;-73
2023/04/27 08:30:12;;;;;;;7.38;2.17;;;;;;;;;;5090112;27;20371;-72
2023/04/27 08:32:38;;;;;;;7.35;2.53;;;;;;;;;;5084744;27;20055;-72
2023/04/27 08:35:05;;;;;;;4.88;2.60;;;;;;;;;;5069304;27;20068;-72
2023/04/27 08:37:32;;;;;;;6.78;3.03;;;;;;;;;;5086010;27;20066;-72
2023/04/27 08:39:58;;;;;;;5.57;2.30;;;;;;;;;;5085451;27;20586;-72
2023/04/27 08:42:24;;;;;;;7.13;2.70;;;;;;;;;;5087038;27;20054;-72
2023/04/27 08:44:51;;;;;;;7.13;2.97;;;;;;;;;;5087171;27;20457;-72
2023/04/27 08:47:17;;;;;;;4.95;2.70;;;;;;;;;;5084693;27;20035;-73
2023/04/27 08:49:43;;;;;;;6.63;2.40;;;;;;;;;;5082898;27;21182;-73
2023/04/27 08:52:13;;;;;;;10.15;3.60;;;;;;;;;;5060676;27;20047;-73
2023/04/27 08:54:39;;;;;;;5.28;3.22;;;;;;;;;;5086026;27;20488;-73
2023/04/27 08:57:12;;;;;;;4.20;2.38;;;;;;;;;;5085175;27;20043;-72
2023/04/27 08:59:39;;;;;;;4.97;2.67;;;;;;;;;;5091289;27;20059;-72
2023/04/27 09:02:05;;;;;;;4.90;2.53;;;;;;;;;;5087928;27;20047;-73
2023/04/27 09:04:38;;;;;;;6.30;3.22;;;;;;;;;;5088526;27;20043;-72
2023/04/27 09:07:11;;;;;;;3.50;2.58;;;;;;;;;;5089841;27;20072;-72
2023/04/27 09:09:37;;;;;;;4.80;2.63;;;;;;;;;;5087866;27;20059;-73
2023/04/27 09:12:13;;;;;;;7.90;3.03;;;;;;;;;;5083254;27;20124;-72
2023/04/27 09:14:40;;;;;;;4.93;2.58;;;;;;;;;;5085279;27;20036;-72
2023/04/27 09:17:08;;;;;;;4.55;2.28;;;;;;;;;;5092644;27;20050;-73
2023/04/27 09:19:34;;;;;;;3.40;2.20;;;;;;;;;;5089745;27;20046;-72
2023/04/27 09:22:04;;;;;;;2.92;2.20;;;;;;;;;;5081981;27;20048;-72
2023/04/27 09:24:30;;;;;;;8.20;2.63;;;;;;;;;;5090688;27;20406;-71
2023/04/27 09:26:56;;;;;;;5.75;2.30;;;;;;;;;;5086369;27;20126;-73
2023/04/27 09:29:32;;;;;;;5.80;2.95;;;;;;;;;;5090549;27;20047;-72
2023/04/27 09:31:58;;;;;;;5.57;2.53;;;;;;;;;;5091450;27;20085;-72
2023/04/27 09:34:24;;;;;;;5.70;2.60;;;;;;;;;;5089427;27;20044;-71
2023/04/27 09:36:50;;;;;;;3.05;2.50;;;;;;;;;;5071240;27;20043;-71
2023/04/27 09:39:18;;;;;;;5.70;3.05;;;;;;;;;;5089022;27;20055;-71
2023/04/27 09:41:45;;;;;;;6.88;2.83;;;;;;;;;;5090563;27;20054;-71
2023/04/27 09:44:12;;;;;;;3.97;2.47;;;;;;;;;;5097852;27;20058;-72
2023/04/27 09:46:38;;;;;;;3.60;2.67;;;;;;;;;;5093808;27;20043;-73
2023/04/27 09:49:04;;;;;;;5.53;2.58;;;;;;;;;;5089593;27;20073;-72
2023/04/27 09:51:31;;;;;;;6.20;2.67;;;;;;;;;;5100835;27;20495;-72
2023/04/27 09:53:59;;;;;;;7.20;2.70;;;;;;;;;;5089768;27;20043;-72
2023/04/27 09:56:33;;;;;;;3.45;2.80;;;;;;;;;;5065351;27;20050;-72
2023/04/27 09:58:59;;;;;;;;;;;;;;;;;;5087285;27;20039;-73
2023/04/27 10:01:38;;;;;;;6.95;2.90;;;;;;;;;;5089685;27;20055;-73
2023/04/27 10:04:23;;;;;;;3.47;2.65;;;;;;;;;;5088165;27;20039;-73
2023/04/27 10:07:11;;;;;;;6.50;2.95;;;;;;;;;;5106190;27;20047;-73
2023/04/27 10:09:41;;;;;;;5.85;2.97;;;;;;;;;;5089508;27;20168;-73
2023/04/27 10:12:15;;;;;;;9.63;3.00;;;;;;;;;;5092530;27;20134;-73
2023/04/27 10:14:48;;;;;;;4.72;2.72;;;;;;;;;;5091685;27;20138;-73
2023/04/27 10:17:15;;;;;;;4.93;2.95;;;;;;;;;;5072672;28;20914;-73
2023/04/27 10:19:53;;;;;;;8.38;3.22;;;;;;;;;;5091455;27;20044;-73
2023/04/27 10:22:19;;;;;;;8.75;3.20;;;;;;;;;;5086448;27;20540;-73
2023/04/27 10:24:48;;;;;;;5.60;3.20;;;;;;;;;;5088007;28;20044;-73
2023/04/27 10:27:18;;;;;;;8.77;4.25;;;;;;;;;;5090415;28;20032;-72
2023/04/27 10:29:45;;;;;;;4.80;3.38;;;;;;;;;;5088983;27;20091;-74
2023/04/27 10:32:23;;;;;;;7.70;3.83;;;;;;;;;;5092125;28;20043;-74
2023/04/27 10:34:50;;;;;;;6.88;3.63;;;;;;;;;;5087696;28;20051;-73
2023/04/27 10:37:16;;;;;;;5.35;3.58;;;;;;;;;;5087011;27;20126;-73
2023/04/27 10:39:43;;;;;;;6.35;3.63;;;;;;;;;;5091465;27;20043;-73
2023/04/27 10:42:10;;;;;;;9.02;3.28;;;;;;;;;;5093395;27;20578;-73
2023/04/27 10:44:37;;;;;;;6.70;3.30;;;;;;;;;;5092672;27;20051;-73
2023/04/27 10:47:18;;;;;;;6.63;4.07;;;;;;;;;;5089981;27;20054;-73
2023/04/27 10:49:45;;;;;;;11.07;3.55;;;;;;;;;;5085157;27;20048;-73
2023/04/27 10:52:11;;;;;;;4.80;3.40;;;;;;;;;;5087906;27;20221;-73
2023/04/27 10:54:38;;;;;;;6.32;3.50;;;;;;;;;;5086271;27;20063;-75
2023/04/27 10:57:06;;;;;;;5.32;3.58;;;;;;;;;;5071312;27;20052;-73
2023/04/27 10:59:32;;;;;;;6.70;3.83;;;;;;;;;;5093138;27;20075;-72
2023/04/27 11:01:58;;;;;;;6.03;3.35;;;;;;;;;;5077475;27;20134;-72
2023/04/27 11:04:34;;;;;;;6.70;3.63;;;;;;;;;;5090309;27;20050;-72
2023/04/27 11:07:03;;;;;;;8.70;3.58;;;;;;;;;;5087503;27;20048;-72
2023/04/27 11:09:29;;;;;;;7.40;3.25;;;;;;;;;;5090830;27;21061;-73
2023/04/27 11:11:56;;;;;;;6.05;3.70;;;;;;;;;;5089126;27;20043;-72
2023/04/27 11:14:22;;;;;;;4.30;3.25;;;;;;;;;;5087344;27;20070;-73
2023/04/27 11:16:48;;;;;;;5.22;3.22;;;;;;;;;;5090109;27;20169;-72
2023/04/27 11:19:14;;;;;;;6.07;3.78;;;;;;;;;;5088424;27;20043;-72
2023/04/27 11:21:41;;;;;;;5.95;3.78;;;;;;;;;;5089338;27;20043;-72
2023/04/27 11:24:08;;;;;;;9.75;4.03;;;;;;;;;;5088803;27;20055;-72
2023/04/27 11:26:35;;;;;;;8.65;3.67;;;;;;;;;;5088229;27;20134;-72
2023/04/27 11:29:04;;;;;;;6.38;4.10;;;;;;;;;;5063731;27;20985;-72
2023/04/27 11:31:42;;;;;;;8.07;3.60;;;;;;;;;;5091544;27;20169;-72
2023/04/27 11:34:08;;;;;;;5.25;3.55;;;;;;;;;;5066935;27;20058;-72
2023/04/27 11:36:35;;;;;;;7.47;4.18;;;;;;;;;;5089112;27;20048;-72
2023/04/27 11:39:01;;;;;;;8.23;4.43;;;;;;;;;;5089809;27;20123;-72
2023/04/27 11:41:34;;;;;;;5.68;4.00;;;;;;;;;;5087984;27;20131;-72
2023/04/27 11:44:05;;;;;;;10.23;4.00;;;;;;;;;;5090753;27;20054;-72
2023/04/27 11:46:31;;;;;;;7.28;3.97;;;;;;;;;;5088283;27;20058;-72
2023/04/27 11:49:01;;;;;;;9.57;3.20;;;;;;;;;;5080286;27;20039;-72
2023/04/27 11:51:29;;;;;;;9.90;4.18;;;;;;;;;;5086586;27;20055;-72
2023/04/27 11:53:55;;;;;;;6.80;3.25;;;;;;;;;;5086909;27;20047;-72
2023/04/27 11:56:21;;;;;;;6.47;3.40;;;;;;;;;;5079020;27;20048;-72
2023/04/27 11:58:48;;;;;;;10.07;4.57;;;;;;;;;;5071784;27;20035;-72
2023/04/27 12:01:14;;;;;;;10.48;3.40;;;;;;;;;;5088480;27;20491;-72
2023/04/27 12:03:40;;;;;;;11.40;4.00;;;;;;;;;;5086039;27;20039;-72
2023/04/27 12:06:06;;;;;;;6.82;3.80;;;;;;;;;;5078908;27;20483;-71
2023/04/27 12:08:32;;;;;;;5.55;3.70;;;;;;;;;;5086154;27;20534;-72
2023/04/27 12:10:58;;;;;;;7.03;4.07;;;;;;;;;;5084313;27;20056;-72
2023/04/27 12:13:25;;;;;;;6.70;3.75;;;;;;;;;;5103031;27;20050;-72
2023/04/27 12:15:51;;;;;;;8.73;4.03;;;;;;;;;;5087777;27;20035;-72
2023/04/27 12:18:17;;;;;;;7.18;4.07;;;;;;;;;;5085386;27;20044;-72
2023/04/27 12:20:43;;;;;;;6.07;3.75;;;;;;;;;;5086138;27;20666;-72
2023/04/27 12:23:09;;;;;;;7.55;3.65;;;;;;;;;;5091497;27;20043;-72
2023/04/27 12:25:35;;;;;;;8.65;4.68;;;;;;;;;;5088643;27;20051;-72
2023/04/27 12:28:01;;;;;;;9.82;5.15;;;;;;;;;;5071512;27;20043;-73
2023/04/27 12:30:27;;;;;;;7.90;4.70;;;;;;;;;;5086065;27;20040;-73
2023/04/27 12:32:54;;;;;;;8.48;4.95;;;;;;;;;;5088632;27;20040;-73
2023/04/27 12:35:20;;;;;;;8.20;4.40;;;;;;;;;;5089865;27;20061;-72
2023/04/27 12:37:47;;;;;;;12.80;4.40;;;;;;;;;;5088908;27;20118;-73
2023/04/27 12:40:13;;;;;;;8.32;4.47;;;;;;;;;;5090063;27;20040;-72
2023/04/27 12:42:39;;;;;;;8.30;4.95;;;;;;;;;;5088102;27;20047;-72
2023/04/27 12:45:06;;;;;;;8.07;4.93;;;;;;;;;;5089704;27;20177;-73
2023/04/27 12:47:33;;;;;;;11.57;5.82;;;;;;;;;;5086376;27;20475;-73
2023/04/27 12:49:59;;;;;;;12.32;4.82;;;;;;;;;;5063955;27;20089;-73
2023/04/27 12:52:27;;;;;;;8.57;4.90;;;;;;;;;;5074595;27;20417;-72
2023/04/27 12:54:56;;;;;;;12.43;5.22;;;;;;;;;;5087785;27;20051;-73
2023/04/27 12:57:22;;;;;;;8.85;4.25;;;;;;;;;;5086540;27;20039;-73
2023/04/27 12:59:49;;;;;;;8.93;4.28;;;;;;;;;;5067852;27;20059;-73
2023/04/27 13:02:15;;;;;;;8.73;4.10;;;;;;;;;;5087353;27;20043;-73
2023/04/27 13:04:41;;;;;;;14.05;4.60;;;;;;;;;;5087720;27;21104;-73
2023/04/27 13:07:07;;;;;;;10.70;4.88;;;;;;;;;;5086457;27;20130;-74
2023/04/27 13:09:35;;;;;;;7.68;4.55;;;;;;;;;;5086853;27;20032;-75
2023/04/27 13:12:02;;;;;;;8.98;4.43;;;;;;;;;;5088272;27;20508;-74
2023/04/27 13:14:29;;;;;;;6.03;4.20;;;;;;;;;;5088115;27;20493;-74
2023/04/27 13:16:55;;;;;;;16.00;5.43;;;;;;;;;;5068035;27;20040;-74
2023/04/27 13:19:21;;;;;;;7.32;4.63;;;;;;;;;;5072999;27;20224;-73
2023/04/27 13:21:47;;;;;;;7.00;4.30;;;;;;;;;;5094861;27;20036;-74
2023/04/27 13:24:16;;;;;;;6.72;4.60;;;;;;;;;;5078754;27;20183;-73
2023/04/27 13:26:42;;;;;;;7.55;4.30;;;;;;;;;;5085822;27;20058;-74
2023/04/27 13:29:08;;;;;;;8.30;4.45;;;;;;;;;;5085373;27;20059;-74
2023/04/27 13:31:35;;;;;;;9.55;4.70;;;;;;;;;;5083139;27;20146;-74
2023/04/27 13:34:03;;;;;;;9.35;4.85;;;;;;;;;;5083416;27;20031;-74
2023/04/27 13:36:29;;;;;;;8.75;5.03;;;;;;;;;;5060639;27;20093;-74
2023/04/27 13:38:56;;;;;;;7.30;5.05;;;;;;;;;;5059270;28;22001;-73
2023/04/27 13:41:22;;;;;;;8.50;4.70;;;;;;;;;;5082661;27;20621;-73
2023/04/27 13:43:48;;;;;;;6.50;4.45;;;;;;;;;;5082337;27;20040;-72
2023/04/27 13:46:14;;;;;;;11.93;4.32;;;;;;;;;;5082101;27;20138;-73
2023/04/27 13:48:41;;;;;;;11.25;4.43;;;;;;;;;;5082540;27;20039;-73
2023/04/27 13:51:08;;;;;;;9.93;4.40;;;;;;;;;;5084487;27;20423;-73
2023/04/27 13:53:35;;;;;;;6.45;4.20;;;;;;;;;;5081629;27;20048;-73
2023/04/27 13:56:01;;;;;;;12.38;6.35;;;;;;;;;;5083948;27;20056;-73
2023/04/27 13:58:30;;;;;;;5.57;4.38;;;;;;;;;;5083313;27;20039;-73
2023/04/27 14:00:57;;;;;;;6.88;4.13;;;;;;;;;;5084537;27;20131;-73
2023/04/27 14:03:23;;;;;;;5.80;4.25;;;;;;;;;;5100594;27;20123;-73
2023/04/27 14:05:52;;;;;;;6.97;4.10;;;;;;;;;;5084041;27;20052;-73
2023/04/27 14:08:18;;;;;;;10.88;4.40;;;;;;;;;;5083418;27;20043;-73
2023/04/27 14:10:45;;;;;;;7.25;4.38;;;;;;;;;;5082282;27;20055;-73
2023/04/27 14:13:11;;;;;;;6.75;4.40;;;;;;;;;;5080935;27;20052;-73
2023/04/27 14:15:37;;;;;;;7.55;3.80;;;;;;;;;;5082587;27;20043;-73
2023/04/27 14:18:04;;;;;;;9.77;3.83;;;;;;;;;;5063501;28;20162;-73
2023/04/27 14:20:31;;;;;;;5.68;4.07;;;;;;;;;;5066998;28;20054;-73
2023/04/27 14:22:57;;;;;;;6.90;4.22;;;;;;;;;;5081562;27;20044;-73
2023/04/27 14:25:23;;;;;;;9.05;4.40;;;;;;;;;;5081539;27;20876;-73
2023/04/27 14:27:49;;;;;;;6.45;3.58;;;;;;;;;;5083082;28;20047;-73
2023/04/27 14:30:16;;;;;;;8.93;3.35;;;;;;;;;;5080291;27;20181;-73
2023/04/27 14:32:42;;;;;;;9.57;3.50;;;;;;;;;;5079381;27;20487;-73
2023/04/27 14:35:08;;;;;;;6.70;3.78;;;;;;;;;;5083455;28;20118;-73
2023/04/27 14:37:34;;;;;;;7.18;4.03;;;;;;;;;;5081797;28;20551;-73